createdAt,value
2022-09-14T00:01:30.123Z,97720.66
2022-09-14T00:04:00.487Z,97718.19
2022-09-14T00:06:31.271Z,97718.53
2022-09-14T00:09:01.233Z,97718.94
2022-09-14T00:11:33.460Z,97711.16
2022-09-14T00:14:02.796Z,97708.88
2022-09-14T00:16:33.194Z,97716.63
2022-09-14T00:19:06.157Z,97719.16
2022-09-14T00:21:36.556Z,97719.00
2022-09-14T00:24:05.242Z,97701.44
2022-09-14T00:26:33.075Z,97698.75
2022-09-14T00:29:04.397Z,97689.13
2022-09-14T00:31:33.373Z,97685.25
2022-09-14T00:34:02.594Z,97671.75
2022-09-14T00:36:31.640Z,97662.59
2022-09-14T00:39:01.694Z,97661.97
2022-09-14T00:41:33.140Z,97667.16
2022-09-14T00:44:04.744Z,97670.13
2022-09-14T00:46:36.435Z,97656.72
2022-09-14T00:49:07.888Z,97655.69
2022-09-14T00:51:42.883Z,97656.25
2022-09-14T00:54:12.329Z,97653.22
2022-09-14T00:56:42.643Z,97642.09
2022-09-14T00:59:14.360Z,97650.34
2022-09-14T01:01:42.400Z,97641.66
2022-09-14T01:04:12.774Z,97640.22
2022-09-14T01:06:50.020Z,97630.44
2022-09-14T01:09:29.214Z,97611.31
2022-09-14T01:12:18.981Z,97613.72
2022-09-14T01:15:04.744Z,97614.41
2022-09-14T01:17:43.227Z,97608.34
2022-09-14T01:20:24.729Z,97599.28
2022-09-14T01:23:03.804Z,97599.13
2022-09-14T01:26:06.431Z,97623.78
2022-09-14T01:28:42.592Z,97646.97
2022-09-14T01:31:26.847Z,97722.63
2022-09-14T01:34:01.902Z,97731.28
2022-09-14T01:36:33.478Z,97724.13
2022-09-14T01:39:03.260Z,97738.63
2022-09-14T01:41:33.374Z,97714.13
2022-09-14T01:44:09.383Z,97703.13
2022-09-14T01:46:41.752Z,97695.00
2022-09-14T01:49:15.956Z,97707.00
2022-09-14T01:51:48.006Z,97704.56
2022-09-14T01:54:22.659Z,97713.06
2022-09-14T01:56:54.701Z,97696.94
2022-09-14T01:59:26.500Z,97701.88
2022-09-14T02:02:00.726Z,97709.94
2022-09-14T02:04:40.222Z,97722.75
2022-09-14T02:07:08.306Z,97724.31
2022-09-14T02:09:36.203Z,97728.78
2022-09-14T02:12:06.933Z,97733.75
2022-09-14T02:14:36.167Z,97730.22
2022-09-14T02:17:04.262Z,97731.94
2022-09-14T02:19:40.971Z,97730.63
2022-09-14T02:22:08.943Z,97722.41
2022-09-14T02:24:37.852Z,97722.66
2022-09-14T02:27:07.218Z,97724.75
2022-09-14T02:29:36.814Z,97701.03
2022-09-14T02:32:16.742Z,97704.84
2022-09-14T02:34:55.055Z,97711.56
2022-09-14T02:37:31.656Z,97716.75
2022-09-14T02:40:07.037Z,97717.97
2022-09-14T02:42:42.005Z,97716.34
2022-09-14T02:45:22.552Z,97725.19
2022-09-14T02:47:58.067Z,97721.25
2022-09-14T02:50:33.725Z,97720.56
2022-09-14T02:53:08.873Z,97725.63
2022-09-14T02:55:40.808Z,97719.69
2022-09-14T02:58:10.642Z,97707.31
2022-09-14T03:00:41.715Z,97694.50
2022-09-14T03:03:11.756Z,97695.75
2022-09-14T03:05:39.825Z,97688.31
2022-09-14T03:08:08.688Z,97680.44
2022-09-14T03:10:36.434Z,97687.03
2022-09-14T03:13:04.603Z,97678.78
2022-09-14T03:15:32.438Z,97666.00
2022-09-14T03:18:01.521Z,97672.81
2022-09-14T03:20:32.753Z,97663.44
2022-09-14T03:23:04.807Z,97671.34
2022-09-14T03:25:38.706Z,97665.13
2022-09-14T03:28:09.714Z,97659.34
2022-09-14T03:30:37.705Z,97664.97
2022-09-14T03:55:56.913Z,97636.44
2022-09-14T03:58:25.033Z,97637.81
2022-09-14T04:00:52.829Z,97628.13
2022-09-14T04:03:21.082Z,97631.69
2022-09-14T04:05:55.992Z,97624.34
2022-09-14T04:08:23.743Z,97619.38
2022-09-14T04:10:51.400Z,97607.13
2022-09-14T04:13:20.491Z,97614.81
2022-09-14T04:15:57.888Z,97612.16
2022-09-14T04:18:28.784Z,97602.41
2022-09-14T04:20:58.121Z,97596.47
2022-09-14T04:23:28.722Z,97590.97
2022-09-14T04:25:58.502Z,97593.44
2022-09-14T04:28:28.489Z,97593.00
2022-09-14T04:30:58.186Z,97601.34
2022-09-14T04:35:47.159Z,97601.53
2022-09-14T04:38:14.847Z,97601.81
2022-09-14T04:40:42.929Z,97586.75
2022-09-14T04:43:10.618Z,97592.59
2022-09-14T04:45:38.521Z,97592.25
2022-09-14T04:48:06.196Z,97605.66
2022-09-14T04:50:34.177Z,97605.50
2022-09-14T04:53:04.757Z,97603.47
2022-09-14T04:55:32.800Z,97605.13
2022-09-14T04:58:03.091Z,97605.78
2022-09-14T05:00:30.958Z,97610.56
2022-09-14T05:02:58.786Z,97610.97
2022-09-14T05:05:26.612Z,97609.72
2022-09-14T05:07:54.299Z,97612.19
2022-09-14T05:10:23.905Z,97612.84
2022-09-14T05:12:51.573Z,97614.09
2022-09-14T05:15:19.285Z,97642.69
2022-09-14T05:17:47.008Z,97656.63
2022-09-14T05:20:14.798Z,97626.28
2022-09-14T05:22:42.522Z,97649.25
2022-09-14T05:25:13.128Z,97644.63
2022-09-14T05:27:42.192Z,97645.59
2022-09-14T05:30:11.238Z,97659.81
2022-09-14T05:32:38.952Z,97651.09
2022-09-14T05:35:07.398Z,97654.13
2022-09-14T05:37:35.154Z,97657.13
2022-09-14T05:40:06.045Z,97647.25
2022-09-14T05:42:33.784Z,97646.91
2022-09-14T05:45:05.964Z,97644.47
2022-09-14T05:47:39.008Z,97648.19
2022-09-14T05:50:08.793Z,97649.66
2022-09-14T05:52:36.502Z,97644.09
2022-09-14T05:55:04.795Z,97632.94
2022-09-14T05:57:32.537Z,97632.53
2022-09-14T06:00:00.248Z,97630.06
2022-09-14T06:02:29.363Z,97610.63
2022-09-14T06:04:57.164Z,97623.03
2022-09-14T06:07:24.912Z,97614.13
2022-09-14T06:09:52.664Z,97616.38
2022-09-14T06:12:20.414Z,97616.81
2022-09-14T06:14:48.168Z,97620.94
2022-09-14T06:17:15.826Z,97628.41
2022-09-14T06:19:44.853Z,97629.25
2022-09-14T06:22:12.552Z,97631.28
2022-09-14T06:24:40.203Z,97634.63
2022-09-14T06:27:08.999Z,97643.28
2022-09-14T06:29:36.826Z,97638.53
2022-09-14T06:32:04.782Z,97644.53
2022-09-14T06:34:32.503Z,97629.22
2022-09-14T06:37:02.477Z,97619.69
2022-09-14T06:39:30.262Z,97630.88
2022-09-14T06:41:58.020Z,97628.00
2022-09-14T06:44:29.561Z,97624.25
2022-09-14T06:46:57.489Z,97613.94
2022-09-14T06:49:25.208Z,97615.97
2022-09-14T06:51:55.260Z,97602.94
2022-09-14T06:54:25.243Z,97615.16
2022-09-14T06:56:55.705Z,97600.63
2022-09-14T06:59:23.495Z,97598.63
2022-09-14T07:01:51.234Z,97603.78
2022-09-14T07:04:19.273Z,97599.41
2022-09-14T07:06:49.042Z,97584.94
2022-09-14T07:09:18.454Z,97581.06
2022-09-14T07:11:47.875Z,97595.19
2022-09-14T07:14:16.834Z,97597.03
2022-09-14T07:16:44.571Z,97605.34
2022-09-14T07:19:15.609Z,97608.84
2022-09-14T07:21:43.742Z,97616.97
2022-09-14T07:24:12.825Z,97625.22
2022-09-14T07:26:42.282Z,97621.94
2022-09-14T07:29:13.577Z,97619.28
2022-09-14T07:31:43.400Z,97618.31
2022-09-14T07:34:12.523Z,97621.84
2022-09-14T07:36:40.783Z,97621.41
2022-09-14T07:39:13.987Z,97615.72
2022-09-14T07:41:43.302Z,97621.47
2022-09-14T07:44:15.796Z,97615.53
2022-09-14T07:46:45.209Z,97617.47
2022-09-14T07:49:13.897Z,97628.00
2022-09-14T07:51:42.186Z,97624.09
2022-09-14T07:54:14.036Z,97629.56
2022-09-14T07:56:43.422Z,97618.75
2022-09-14T08:02:07.446Z,97630.28
2022-09-14T08:04:35.968Z,97629.19
2022-09-14T08:07:04.121Z,97636.38
2022-09-14T08:09:32.385Z,97633.94
2022-09-14T08:12:00.567Z,97642.69
2022-09-14T08:14:29.655Z,97649.16
2022-09-14T08:16:57.449Z,97653.38
2022-09-14T08:19:26.422Z,97661.28
2022-09-14T08:21:54.070Z,97657.75
2022-09-14T08:24:22.998Z,97650.97
2022-09-14T08:26:50.979Z,97663.28
2022-09-14T08:29:20.415Z,97662.41
2022-09-14T08:31:51.822Z,97673.53
2022-09-14T08:34:20.860Z,97688.47
2022-09-14T08:36:49.034Z,97682.94
2022-09-14T08:39:17.983Z,97672.31
2022-09-14T08:41:52.475Z,97669.75
2022-09-14T08:44:25.753Z,97676.59
2022-09-14T08:47:01.791Z,97689.88
2022-09-14T08:49:39.862Z,97704.28
2022-09-14T08:52:14.338Z,97711.88
2022-09-14T08:54:42.079Z,97724.53
2022-09-14T08:57:17.672Z,97726.88
2022-09-14T08:59:53.048Z,97717.91
2022-09-14T09:02:37.349Z,97704.38
2022-09-14T09:05:21.549Z,97695.09
2022-09-14T09:07:55.092Z,97680.75
2022-09-14T09:10:23.947Z,97679.97
2022-09-14T09:12:55.310Z,97682.50
2022-09-14T09:15:26.082Z,97684.00
2022-09-14T09:17:59.831Z,97689.63
2022-09-14T09:20:31.036Z,97695.69
2022-09-14T09:23:11.503Z,97704.41
2022-09-14T09:25:52.321Z,97707.50
2022-09-14T09:28:21.968Z,97698.94
2022-09-14T09:30:49.680Z,97703.56
2022-09-14T09:33:22.700Z,97701.38
2022-09-14T09:36:14.721Z,97703.75
2022-09-14T09:38:42.856Z,97688.19
2022-09-14T09:41:17.033Z,97683.44
2022-09-14T09:44:00.172Z,97677.13
2022-09-14T09:46:29.418Z,97673.88
2022-09-14T09:49:03.103Z,97668.97
2022-09-14T09:51:33.100Z,97666.69
2022-09-14T09:54:09.478Z,97661.56
2022-09-14T09:56:41.038Z,97656.59
2022-09-14T09:59:24.568Z,97640.59
2022-09-14T10:01:55.519Z,97630.38
2022-09-14T10:04:28.713Z,97627.75
2022-09-14T10:06:57.693Z,97626.38
2022-09-14T10:09:28.130Z,97636.97
2022-09-14T10:12:00.434Z,97644.56
2022-09-14T10:14:31.303Z,97621.50
2022-09-14T10:17:07.483Z,97618.97
2022-09-14T10:19:37.666Z,97620.19
2022-09-14T10:22:19.227Z,97610.59
2022-09-14T10:24:58.105Z,97610.47
2022-09-14T10:27:43.308Z,97613.66
2022-09-14T10:30:15.473Z,97612.94
2022-09-14T10:32:49.999Z,97605.19
2022-09-14T10:35:20.895Z,97591.41
2022-09-14T10:38:01.836Z,97593.19
2022-09-14T10:40:36.802Z,97580.91
2022-09-14T10:43:17.779Z,97584.91
2022-09-14T10:45:52.726Z,97573.38
2022-09-14T10:48:43.558Z,97572.47
2022-09-14T10:51:30.119Z,97569.78
2022-09-14T10:54:06.266Z,97574.91
2022-09-14T10:56:45.984Z,97567.97
2022-09-14T10:59:29.073Z,97563.47
2022-09-14T11:02:19.624Z,97550.47
2022-09-14T11:05:00.517Z,97540.16
2022-09-14T11:07:38.184Z,97541.84
2022-09-14T11:10:18.240Z,97531.06
2022-09-14T11:12:56.728Z,97537.78
2022-09-14T11:15:30.935Z,97543.06
2022-09-14T11:18:15.544Z,97525.63
2022-09-14T11:20:56.650Z,97530.53
2022-09-14T11:23:39.703Z,97528.31
2022-09-14T11:26:12.415Z,97531.50
2022-09-14T11:28:45.227Z,97527.28
2022-09-14T11:31:18.287Z,97519.69
2022-09-14T11:33:50.227Z,97521.16
2022-09-14T11:36:22.942Z,97530.94
2022-09-14T11:38:57.771Z,97518.06
2022-09-14T11:41:32.229Z,97518.84
2022-09-14T11:44:04.729Z,97510.22
2022-09-14T11:46:37.547Z,97509.03
2022-09-14T11:49:15.190Z,97511.16
2022-09-14T11:51:50.161Z,97505.78
2022-09-14T11:54:21.443Z,97503.63
2022-09-14T11:56:51.046Z,97508.03
2022-09-14T11:59:50.562Z,97508.38
2022-09-14T12:02:49.145Z,97513.75
2022-09-14T12:05:35.593Z,97511.44
2022-09-14T12:08:27.222Z,97522.19
2022-09-14T12:11:19.100Z,97513.78
2022-09-14T12:13:47.546Z,97521.47
2022-09-14T12:16:15.470Z,97519.47
2022-09-14T12:18:47.117Z,97533.31
2022-09-14T12:21:25.620Z,97538.56
2022-09-14T12:23:57.681Z,97522.81
2022-09-14T12:26:31.315Z,97529.38
2022-09-14T12:29:06.126Z,97530.47
2022-09-14T12:32:25.265Z,97533.88
2022-09-14T12:35:26.236Z,97536.03
2022-09-14T12:37:54.012Z,97536.88
2022-09-14T12:40:38.382Z,97550.28
2022-09-14T12:43:50.923Z,97557.91
2022-09-14T12:46:40.807Z,97562.34
2022-09-14T12:49:30.374Z,97562.69
2022-09-14T12:52:09.926Z,97573.66
2022-09-14T12:54:56.711Z,97586.34
2022-09-14T12:57:35.613Z,97600.72
2022-09-14T13:00:13.751Z,97600.47
2022-09-14T13:03:05.832Z,97592.09
2022-09-14T13:05:35.746Z,97585.94
2022-09-14T13:08:11.020Z,97587.22
2022-09-14T13:10:45.869Z,97590.22
2022-09-14T13:13:18.543Z,97602.19
2022-09-14T13:15:53.282Z,97596.72
2022-09-14T13:18:34.186Z,97595.31
2022-09-14T13:21:18.137Z,97602.03
2022-09-14T13:23:48.504Z,97607.16
2022-09-14T13:26:20.423Z,97627.44
2022-09-14T13:28:50.655Z,97631.66
2022-09-14T13:31:23.436Z,97632.88
2022-09-14T13:33:54.098Z,97648.78
2022-09-14T13:36:25.871Z,97641.72
2022-09-14T13:38:54.562Z,97644.69
2022-09-14T13:41:24.142Z,97643.91
2022-09-14T13:43:54.765Z,97635.81
2022-09-14T13:46:23.972Z,97641.72
2022-09-14T13:48:53.479Z,97633.72
2022-09-14T13:51:27.433Z,97642.19
2022-09-14T13:53:57.439Z,97644.44
2022-09-14T13:56:30.900Z,97620.50
2022-09-14T13:59:18.836Z,97617.53
2022-09-14T14:01:57.269Z,97619.47
2022-09-14T14:04:33.559Z,97602.28
2022-09-14T14:07:18.964Z,97595.66
2022-09-14T14:09:50.770Z,97594.56
2022-09-14T14:12:25.447Z,97588.88
2022-09-14T14:15:38.272Z,97578.91
2022-09-14T14:18:31.524Z,97574.72
2022-09-14T14:21:07.399Z,97568.09
2022-09-14T14:23:56.417Z,97564.28
2022-09-14T14:26:27.884Z,97569.75
2022-09-14T14:28:55.964Z,97580.16
2022-09-14T14:31:26.269Z,97585.50
2022-09-14T14:33:55.541Z,97586.31
2022-09-14T14:36:23.340Z,97580.78
2022-09-14T14:38:51.058Z,97602.47
2022-09-14T14:41:22.429Z,97613.56
2022-09-14T14:43:50.912Z,97611.78
2022-09-14T14:46:18.841Z,97610.22
2022-09-14T14:48:47.907Z,97616.06
2022-09-14T14:51:15.954Z,97634.75
2022-09-14T14:53:44.671Z,97630.69
2022-09-14T14:56:13.644Z,97628.22
2022-09-14T14:58:45.418Z,97629.69
2022-09-14T15:01:13.518Z,97617.16
2022-09-14T15:03:44.383Z,97614.63
2022-09-14T15:06:16.059Z,97617.91
2022-09-14T15:08:45.950Z,97600.84
2022-09-14T15:11:18.775Z,97606.75
2022-09-14T15:13:46.752Z,97592.00
2022-09-14T15:16:15.504Z,97586.28
2022-09-14T15:18:43.600Z,97596.56
2022-09-14T15:21:11.698Z,97583.50
2022-09-14T15:23:40.886Z,97590.97
2022-09-14T15:26:09.148Z,97575.72
2022-09-14T15:28:38.583Z,97565.81
2022-09-14T15:31:07.971Z,97540.88
2022-09-14T15:33:35.897Z,97549.41
2022-09-14T15:36:04.227Z,97547.97
2022-09-14T15:38:31.947Z,97534.88
2022-09-14T15:41:00.993Z,97537.47
2022-09-14T15:43:28.781Z,97523.66
2022-09-14T15:45:56.649Z,97496.88
2022-09-14T15:48:24.415Z,97498.94
2022-09-14T15:50:52.108Z,97500.31
2022-09-14T15:53:20.014Z,97502.09
2022-09-14T15:55:48.225Z,97500.66
2022-09-14T15:58:17.301Z,97506.09
2022-09-14T16:00:45.419Z,97500.03
2022-09-14T16:03:13.227Z,97491.84
2022-09-14T16:05:41.370Z,97503.06
2022-09-14T16:08:09.189Z,97479.00
2022-09-14T16:10:37.021Z,97476.94
2022-09-14T16:13:05.594Z,97478.44
2022-09-14T16:15:34.674Z,97466.50
2022-09-14T16:18:02.780Z,97468.50
2022-09-14T16:20:30.423Z,97477.16
2022-09-14T16:22:58.159Z,97473.41
2022-09-14T16:25:28.212Z,97487.00
2022-09-14T16:27:55.902Z,97487.47
2022-09-14T16:30:23.782Z,97509.81
2022-09-14T16:32:52.978Z,97513.78
2022-09-14T16:35:20.706Z,97518.31
2022-09-14T16:37:48.611Z,97518.56
2022-09-14T16:40:17.570Z,97512.25
2022-09-14T16:42:46.873Z,97519.84
2022-09-14T16:45:14.774Z,97523.88
2022-09-14T16:47:42.435Z,97532.25
2022-09-14T16:50:13.572Z,97522.00
2022-09-14T16:52:41.330Z,97524.28
2022-09-14T16:55:09.392Z,97516.09
2022-09-14T16:57:37.353Z,97523.97
2022-09-14T17:00:05.911Z,97517.66
2022-09-14T17:02:33.777Z,97532.13
2022-09-14T17:05:01.542Z,97526.09
2022-09-14T17:07:30.649Z,97518.78
2022-09-14T17:09:58.364Z,97511.13
2022-09-14T17:12:26.423Z,97523.84
2022-09-14T17:14:54.146Z,97527.84
2022-09-14T17:17:21.900Z,97534.50
2022-09-14T17:19:49.612Z,97536.44
2022-09-14T17:22:17.272Z,97541.56
2022-09-14T17:24:46.397Z,97540.31
2022-09-14T17:27:14.103Z,97542.34
2022-09-14T17:29:42.416Z,97536.69
2022-09-14T17:32:14.671Z,97533.94
2022-09-14T17:34:44.798Z,97535.31
2022-09-14T17:37:12.527Z,97529.28
2022-09-14T17:39:40.310Z,97530.94
2022-09-14T17:42:09.398Z,97542.13
2022-09-14T17:44:37.260Z,97542.88
2022-09-14T17:47:05.583Z,97535.88
2022-09-14T17:49:33.358Z,97536.72
2022-09-14T17:52:01.954Z,97533.53
2022-09-14T17:54:29.857Z,97535.91
2022-09-14T17:56:57.747Z,97533.28
2022-09-14T17:59:29.967Z,97542.59
2022-09-14T18:01:57.955Z,97540.28
2022-09-14T18:04:25.635Z,97542.78
2022-09-14T18:06:53.382Z,97539.47
2022-09-14T18:09:24.076Z,97541.97
2022-09-14T18:11:52.513Z,97543.16
2022-09-14T18:14:20.243Z,97555.53
2022-09-14T18:16:51.682Z,97556.81
2022-09-14T18:19:19.590Z,97553.50
2022-09-14T18:21:52.139Z,97553.69
2022-09-14T18:24:20.783Z,97554.94
2022-09-14T18:26:48.716Z,97553.50
2022-09-14T18:29:18.345Z,97548.41
2022-09-14T18:31:46.122Z,97542.81
2022-09-14T18:34:15.343Z,97541.56
2022-09-14T18:36:43.087Z,97551.91
2022-09-14T18:39:13.829Z,97552.72
2022-09-14T18:41:41.780Z,97553.34
2022-09-14T18:44:10.844Z,97557.06
2022-09-14T18:46:38.931Z,97549.00
2022-09-14T18:49:06.661Z,97562.03
2022-09-14T18:51:35.758Z,97550.88
2022-09-14T18:54:06.052Z,97551.50
2022-09-14T18:56:35.403Z,97553.16
2022-09-14T18:59:04.341Z,97561.22
2022-09-14T19:01:32.395Z,97555.22
2022-09-14T19:04:00.335Z,97553.75
2022-09-14T19:06:28.036Z,97551.72
2022-09-14T19:08:58.380Z,97559.34
2022-09-14T19:11:28.000Z,97559.75
2022-09-14T19:13:57.031Z,97553.97
2022-09-14T19:16:24.900Z,97558.50
2022-09-14T19:18:52.654Z,97556.00
2022-09-14T19:21:23.987Z,97562.59
2022-09-14T19:24:00.214Z,97563.38
2022-09-14T19:26:30.702Z,97559.06
2022-09-14T19:29:00.836Z,97565.75
2022-09-14T19:31:30.560Z,97567.13
2022-09-14T19:33:58.572Z,97564.03
2022-09-14T19:36:27.277Z,97567.13
2022-09-14T19:38:57.777Z,97566.31
2022-09-14T19:41:27.674Z,97559.91
2022-09-14T19:43:55.335Z,97568.00
2022-09-14T19:46:24.250Z,97583.72
2022-09-14T19:48:53.193Z,97586.44
2022-09-14T19:51:22.713Z,97584.34
2022-09-14T19:53:51.726Z,97585.81
2022-09-14T19:56:23.095Z,97577.75
2022-09-14T19:58:54.777Z,97575.47
2022-09-14T20:01:25.466Z,97591.19
2022-09-14T20:03:53.820Z,97592.84
2022-09-14T20:06:23.616Z,97596.38
2022-09-14T20:08:52.754Z,97597.38
2022-09-14T20:11:24.438Z,97608.91
2022-09-14T20:13:54.447Z,97599.03
2022-09-14T20:16:24.132Z,97599.22
2022-09-14T20:18:52.943Z,97598.59
2022-09-14T20:21:23.058Z,97600.28
2022-09-14T20:24:16.041Z,97600.28
2022-09-14T20:26:46.626Z,97601.31
2022-09-14T20:29:15.439Z,97603.38
2022-09-14T20:31:45.722Z,97592.84
2022-09-14T20:34:13.809Z,97595.31
2022-09-14T20:36:41.498Z,97596.97
2022-09-14T20:39:09.956Z,97599.91
2022-09-14T20:41:37.731Z,97601.72
2022-09-14T20:44:09.804Z,97612.88
2022-09-14T20:46:41.659Z,97615.16
2022-09-14T20:49:11.887Z,97610.81
2022-09-14T20:51:40.558Z,97615.16
2022-09-14T20:54:13.830Z,97605.84
2022-09-14T20:56:42.561Z,97613.25
2022-09-14T20:59:14.425Z,97611.84
2022-09-14T21:01:43.936Z,97616.78
2022-09-14T21:04:14.850Z,97624.66
2022-09-14T21:06:45.281Z,97619.50
2022-09-14T21:09:14.356Z,97614.34
2022-09-14T21:11:45.592Z,97609.16
2022-09-14T21:14:15.515Z,97611.25
2022-09-14T21:16:45.970Z,97605.63
2022-09-14T21:19:16.047Z,97605.38
2022-09-14T21:21:44.299Z,97597.63
2022-09-14T21:24:15.641Z,97587.34
2022-09-14T21:26:46.114Z,97597.38
2022-09-14T21:29:20.114Z,97592.00
2022-09-14T21:31:48.662Z,97592.00
2022-09-14T21:34:16.749Z,97590.94
2022-09-14T21:36:47.056Z,97591.97
2022-09-14T21:39:16.407Z,97596.94
2022-09-14T21:41:45.723Z,97588.06
2022-09-14T21:44:15.002Z,97587.06
2022-09-14T21:46:43.151Z,97580.41
2022-09-14T21:49:15.356Z,97583.75
2022-09-14T21:51:44.345Z,97582.28
2022-09-14T21:54:13.931Z,97590.97
2022-09-14T21:56:44.714Z,97599.03
2022-09-14T21:59:17.037Z,97585.78
2022-09-14T22:01:45.051Z,97586.09
2022-09-14T22:04:16.606Z,97595.38
2022-09-14T22:06:45.586Z,97589.25
2022-09-14T22:09:14.364Z,97591.63
2022-09-14T22:11:42.164Z,97595.47
2022-09-14T22:14:13.082Z,97589.22
2022-09-14T22:16:43.109Z,97587.78
2022-09-14T22:19:16.433Z,97593.22
2022-09-14T22:21:44.707Z,97604.41
2022-09-14T22:24:15.062Z,97608.41
2022-09-14T22:26:44.448Z,97614.22
2022-09-14T22:29:13.064Z,97613.72
2022-09-14T22:31:44.477Z,97609.84
2022-09-14T22:34:13.234Z,97614.53
2022-09-14T22:36:41.359Z,97618.53
2022-09-14T22:39:10.026Z,97610.50
2022-09-14T22:41:38.502Z,97604.13
2022-09-14T22:44:06.852Z,97611.03
2022-09-14T22:46:36.812Z,97621.06
2022-09-14T22:49:05.997Z,97624.00
2022-09-14T22:51:33.723Z,97631.09
2022-09-14T22:54:01.972Z,97639.97
2022-09-14T22:56:32.167Z,97629.19
2022-09-14T22:59:01.107Z,97628.66
2022-09-14T23:01:36.710Z,97622.38
2022-09-14T23:04:07.596Z,97619.53
2022-09-14T23:06:38.002Z,97629.66
2022-09-14T23:09:09.061Z,97632.84
2022-09-14T23:11:37.635Z,97646.09
2022-09-14T23:14:05.666Z,97641.13
2022-09-14T23:16:33.621Z,97642.78
2022-09-14T23:19:07.667Z,97641.47
2022-09-14T23:21:36.254Z,97646.75
2022-09-14T23:24:07.057Z,97649.59
2022-09-14T23:26:34.939Z,97650.31
2022-09-14T23:29:05.143Z,97651.97
2022-09-14T23:31:33.451Z,97657.56
2022-09-14T23:34:02.959Z,97664.00
2022-09-14T23:36:32.673Z,97666.53
2022-09-14T23:39:00.675Z,97661.69
2022-09-14T23:41:29.388Z,97662.19
2022-09-14T23:43:57.158Z,97667.16
2022-09-14T23:46:25.520Z,97663.03
2022-09-14T23:48:53.390Z,97663.22
2022-09-14T23:51:21.091Z,97659.72
2022-09-14T23:53:50.212Z,97648.06
2022-09-14T23:56:18.563Z,97636.69
2022-09-14T23:58:46.334Z,97641.47
